sensor_id;sensor_type;location;lat;lon;timestamp;P1;durP1;ratioP1;P2;durP2;ratioP2
51943;SDS011;37969;53.132;6.370;2023-02-04T00:01:51;61.35;;;7.95;;
51943;SDS011;37969;53.132;6.370;2023-02-04T00:04:18;55.75;;;7.88;;
51943;SDS011;37969;53.132;6.370;2023-02-04T00:06:44;66.93;;;8.13;;
51943;SDS011;37969;53.132;6.370;2023-02-04T00:09:10;50.08;;;7.20;;
51943;SDS011;37969;53.132;6.370;2023-02-04T00:11:36;51.15;;;7.20;;
51943;SDS011;37969;53.132;6.370;2023-02-04T00:14:02;54.30;;;8.68;;
51943;SDS011;37969;53.132;6.370;2023-02-04T00:16:28;61.08;;;7.90;;
51943;SDS011;37969;53.132;6.370;2023-02-04T00:18:55;73.20;;;9.85;;
51943;SDS011;37969;53.132;6.370;2023-02-04T00:21:21;59.03;;;8.70;;
51943;SDS011;37969;53.132;6.370;2023-02-04T00:23:47;61.65;;;8.55;;
51943;SDS011;37969;53.132;6.370;2023-02-04T00:26:15;60.55;;;8.65;;
51943;SDS011;37969;53.132;6.370;2023-02-04T00:28:41;64.75;;;8.05;;
51943;SDS011;37969;53.132;6.370;2023-02-04T00:31:07;55.13;;;7.43;;
51943;SDS011;37969;53.132;6.370;2023-02-04T00:33:33;66.28;;;8.07;;
51943;SDS011;37969;53.132;6.370;2023-02-04T00:36:00;63.30;;;8.68;;
51943;SDS011;37969;53.132;6.370;2023-02-04T00:38:26;57.58;;;8.40;;
51943;SDS011;37969;53.132;6.370;2023-02-04T00:40:52;63.92;;;8.07;;
51943;SDS011;37969;53.132;6.370;2023-02-04T00:43:18;55.03;;;7.72;;
51943;SDS011;37969;53.132;6.370;2023-02-04T00:45:44;55.85;;;8.07;;
51943;SDS011;37969;53.132;6.370;2023-02-04T00:48:10;58.35;;;7.43;;
51943;SDS011;37969;53.132;6.370;2023-02-04T00:50:37;70.90;;;7.70;;
51943;SDS011;37969;53.132;6.370;2023-02-04T00:53:04;57.05;;;7.70;;
51943;SDS011;37969;53.132;6.370;2023-02-04T00:55:30;56.15;;;8.43;;
51943;SDS011;37969;53.132;6.370;2023-02-04T00:57:56;63.78;;;8.23;;
51943;SDS011;37969;53.132;6.370;2023-02-04T01:00:23;62.63;;;9.13;;
51943;SDS011;37969;53.132;6.370;2023-02-04T01:02:49;59.38;;;8.50;;
51943;SDS011;37969;53.132;6.370;2023-02-04T01:05:15;63.40;;;8.40;;
51943;SDS011;37969;53.132;6.370;2023-02-04T01:07:41;62.60;;;7.47;;
51943;SDS011;37969;53.132;6.370;2023-02-04T01:10:07;60.53;;;8.65;;
51943;SDS011;37969;53.132;6.370;2023-02-04T01:12:34;60.75;;;8.07;;
51943;SDS011;37969;53.132;6.370;2023-02-04T01:15:00;54.65;;;7.53;;
51943;SDS011;37969;53.132;6.370;2023-02-04T01:17:26;57.58;;;8.05;;
51943;SDS011;37969;53.132;6.370;2023-02-04T01:19:52;69.28;;;8.00;;
51943;SDS011;37969;53.132;6.370;2023-02-04T01:22:18;65.80;;;6.90;;
51943;SDS011;37969;53.132;6.370;2023-02-04T01:24:44;52.72;;;8.65;;
51943;SDS011;37969;53.132;6.370;2023-02-04T01:27:10;60.20;;;8.32;;
51943;SDS011;37969;53.132;6.370;2023-02-04T01:29:37;60.58;;;7.55;;
51943;SDS011;37969;53.132;6.370;2023-02-04T01:32:03;69.25;;;8.43;;
51943;SDS011;37969;53.132;6.370;2023-02-04T01:34:29;57.08;;;7.82;;
51943;SDS011;37969;53.132;6.370;2023-02-04T01:36:55;74.93;;;8.38;;
51943;SDS011;37969;53.132;6.370;2023-02-04T01:39:22;67.05;;;9.13;;
51943;SDS011;37969;53.132;6.370;2023-02-04T01:41:48;64.53;;;7.28;;
51943;SDS011;37969;53.132;6.370;2023-02-04T01:44:14;71.13;;;8.07;;
51943;SDS011;37969;53.132;6.370;2023-02-04T01:46:40;57.60;;;7.90;;
51943;SDS011;37969;53.132;6.370;2023-02-04T01:49:06;63.00;;;8.45;;
51943;SDS011;37969;53.132;6.370;2023-02-04T01:51:34;60.15;;;8.13;;
51943;SDS011;37969;53.132;6.370;2023-02-04T01:54:01;59.70;;;8.57;;
51943;SDS011;37969;53.132;6.370;2023-02-04T01:56:28;58.08;;;8.50;;
51943;SDS011;37969;53.132;6.370;2023-02-04T01:58:55;68.97;;;8.00;;
51943;SDS011;37969;53.132;6.370;2023-02-04T02:01:32;69.70;;;9.25;;
51943;SDS011;37969;53.132;6.370;2023-02-04T02:03:59;63.22;;;8.35;;
51943;SDS011;37969;53.132;6.370;2023-02-04T02:06:26;73.65;;;8.73;;
51943;SDS011;37969;53.132;6.370;2023-02-04T02:08:52;62.33;;;9.13;;
51943;SDS011;37969;53.132;6.370;2023-02-04T02:11:19;57.15;;;7.57;;
51943;SDS011;37969;53.132;6.370;2023-02-04T02:13:45;74.35;;;9.30;;
51943;SDS011;37969;53.132;6.370;2023-02-04T02:16:11;71.72;;;8.45;;
51943;SDS011;37969;53.132;6.370;2023-02-04T02:18:37;67.47;;;9.50;;
51943;SDS011;37969;53.132;6.370;2023-02-04T02:21:04;67.75;;;9.50;;
51943;SDS011;37969;53.132;6.370;2023-02-04T02:23:43;76.45;;;10.18;;
51943;SDS011;37969;53.132;6.370;2023-02-04T02:26:10;74.10;;;7.78;;
51943;SDS011;37969;53.132;6.370;2023-02-04T02:28:37;67.60;;;9.13;;
51943;SDS011;37969;53.132;6.370;2023-02-04T02:31:03;64.80;;;9.23;;
51943;SDS011;37969;53.132;6.370;2023-02-04T02:33:29;58.08;;;8.65;;
51943;SDS011;37969;53.132;6.370;2023-02-04T02:35:55;75.88;;;9.13;;
51943;SDS011;37969;53.132;6.370;2023-02-04T02:38:21;68.68;;;9.55;;
51943;SDS011;37969;53.132;6.370;2023-02-04T02:40:48;71.20;;;9.88;;
51943;SDS011;37969;53.132;6.370;2023-02-04T02:43:16;63.10;;;8.02;;
51943;SDS011;37969;53.132;6.370;2023-02-04T02:45:43;64.75;;;9.00;;
51943;SDS011;37969;53.132;6.370;2023-02-04T02:48:09;72.72;;;7.90;;
51943;SDS011;37969;53.132;6.370;2023-02-04T02:50:36;64.75;;;8.05;;
51943;SDS011;37969;53.132;6.370;2023-02-04T02:53:02;66.10;;;8.65;;
51943;SDS011;37969;53.132;6.370;2023-02-04T02:55:29;72.43;;;9.15;;
51943;SDS011;37969;53.132;6.370;2023-02-04T02:57:55;65.30;;;8.70;;
51943;SDS011;37969;53.132;6.370;2023-02-04T03:00:23;76.45;;;8.52;;
51943;SDS011;37969;53.132;6.370;2023-02-04T03:03:01;78.10;;;8.93;;
51943;SDS011;37969;53.132;6.370;2023-02-04T03:05:30;76.90;;;9.80;;
51943;SDS011;37969;53.132;6.370;2023-02-04T03:07:57;68.13;;;8.75;;
51943;SDS011;37969;53.132;6.370;2023-02-04T03:10:24;75.70;;;8.68;;
51943;SDS011;37969;53.132;6.370;2023-02-04T03:12:50;73.90;;;8.23;;
51943;SDS011;37969;53.132;6.370;2023-02-04T03:15:17;59.80;;;8.30;;
51943;SDS011;37969;53.132;6.370;2023-02-04T03:17:43;69.93;;;7.88;;
51943;SDS011;37969;53.132;6.370;2023-02-04T03:20:09;71.47;;;8.75;;
51943;SDS011;37969;53.132;6.370;2023-02-04T03:22:36;73.03;;;9.02;;
51943;SDS011;37969;53.132;6.370;2023-02-04T03:25:02;79.13;;;10.27;;
51943;SDS011;37969;53.132;6.370;2023-02-04T03:27:28;77.55;;;9.50;;
51943;SDS011;37969;53.132;6.370;2023-02-04T03:29:55;71.45;;;8.40;;
51943;SDS011;37969;53.132;6.370;2023-02-04T03:32:21;66.78;;;8.60;;
51943;SDS011;37969;53.132;6.370;2023-02-04T03:34:47;76.50;;;8.40;;
51943;SDS011;37969;53.132;6.370;2023-02-04T03:37:13;74.45;;;9.68;;
51943;SDS011;37969;53.132;6.370;2023-02-04T03:39:40;78.75;;;10.15;;
51943;SDS011;37969;53.132;6.370;2023-02-04T03:42:07;61.25;;;8.40;;
51943;SDS011;37969;53.132;6.370;2023-02-04T03:44:33;69.07;;;8.85;;
51943;SDS011;37969;53.132;6.370;2023-02-04T03:46:59;64.85;;;7.57;;
51943;SDS011;37969;53.132;6.370;2023-02-04T03:49:25;71.60;;;8.45;;
51943;SDS011;37969;53.132;6.370;2023-02-04T03:51:52;57.67;;;6.90;;
51943;SDS011;37969;53.132;6.370;2023-02-04T03:54:18;69.35;;;8.30;;
51943;SDS011;37969;53.132;6.370;2023-02-04T03:56:44;84.75;;;9.60;;
51943;SDS011;37969;53.132;6.370;2023-02-04T03:59:11;66.75;;;8.70;;
51943;SDS011;37969;53.132;6.370;2023-02-04T04:01:37;71.55;;;8.27;;
51943;SDS011;37969;53.132;6.370;2023-02-04T04:04:03;75.07;;;9.30;;
51943;SDS011;37969;53.132;6.370;2023-02-04T04:06:29;88.82;;;10.45;;
51943;SDS011;37969;53.132;6.370;2023-02-04T04:08:56;70.95;;;8.27;;
51943;SDS011;37969;53.132;6.370;2023-02-04T04:11:22;85.72;;;10.35;;
51943;SDS011;37969;53.132;6.370;2023-02-04T04:13:48;67.95;;;9.15;;
51943;SDS011;37969;53.132;6.370;2023-02-04T04:16:14;76.75;;;9.65;;
51943;SDS011;37969;53.132;6.370;2023-02-04T04:18:40;70.60;;;8.57;;
51943;SDS011;37969;53.132;6.370;2023-02-04T04:21:06;67.97;;;7.78;;
51943;SDS011;37969;53.132;6.370;2023-02-04T04:23:32;75.35;;;9.65;;
51943;SDS011;37969;53.132;6.370;2023-02-04T04:25:59;67.55;;;8.20;;
51943;SDS011;37969;53.132;6.370;2023-02-04T04:28:25;69.13;;;8.48;;
51943;SDS011;37969;53.132;6.370;2023-02-04T04:30:51;72.47;;;10.00;;
51943;SDS011;37969;53.132;6.370;2023-02-04T04:33:17;68.97;;;8.05;;
51943;SDS011;37969;53.132;6.370;2023-02-04T04:35:43;59.40;;;7.93;;
51943;SDS011;37969;53.132;6.370;2023-02-04T04:38:09;73.57;;;8.60;;
51943;SDS011;37969;53.132;6.370;2023-02-04T04:40:36;72.63;;;8.63;;
51943;SDS011;37969;53.132;6.370;2023-02-04T04:43:02;74.20;;;7.70;;
51943;SDS011;37969;53.132;6.370;2023-02-04T04:45:28;74.05;;;8.15;;
51943;SDS011;37969;53.132;6.370;2023-02-04T04:47:54;71.95;;;8.60;;
51943;SDS011;37969;53.132;6.370;2023-02-04T04:50:20;69.38;;;7.63;;
51943;SDS011;37969;53.132;6.370;2023-02-04T04:52:47;81.50;;;8.27;;
51943;SDS011;37969;53.132;6.370;2023-02-04T04:55:13;67.45;;;8.10;;
51943;SDS011;37969;53.132;6.370;2023-02-04T04:57:39;64.75;;;8.82;;
51943;SDS011;37969;53.132;6.370;2023-02-04T05:00:06;67.38;;;8.27;;
51943;SDS011;37969;53.132;6.370;2023-02-04T05:02:32;86.53;;;9.45;;
51943;SDS011;37969;53.132;6.370;2023-02-04T05:04:58;70.80;;;8.73;;
51943;SDS011;37969;53.132;6.370;2023-02-04T05:07:25;65.65;;;8.20;;
51943;SDS011;37969;53.132;6.370;2023-02-04T05:09:51;66.78;;;8.75;;
51943;SDS011;37969;53.132;6.370;2023-02-04T05:12:17;66.53;;;8.50;;
51943;SDS011;37969;53.132;6.370;2023-02-04T05:14:44;65.22;;;8.52;;
51943;SDS011;37969;53.132;6.370;2023-02-04T05:17:10;68.95;;;8.15;;
51943;SDS011;37969;53.132;6.370;2023-02-04T05:19:36;66.63;;;9.57;;
51943;SDS011;37969;53.132;6.370;2023-02-04T05:22:02;53.35;;;7.47;;
51943;SDS011;37969;53.132;6.370;2023-02-04T05:24:29;49.50;;;7.78;;
51943;SDS011;37969;53.132;6.370;2023-02-04T05:26:55;61.85;;;7.65;;
51943;SDS011;37969;53.132;6.370;2023-02-04T05:29:21;54.20;;;8.10;;
51943;SDS011;37969;53.132;6.370;2023-02-04T05:31:47;61.03;;;6.43;;
51943;SDS011;37969;53.132;6.370;2023-02-04T05:34:13;64.88;;;7.80;;
51943;SDS011;37969;53.132;6.370;2023-02-04T05:36:39;54.95;;;6.28;;
51943;SDS011;37969;53.132;6.370;2023-02-04T05:39:05;58.40;;;7.55;;
51943;SDS011;37969;53.132;6.370;2023-02-04T05:41:32;74.30;;;8.00;;
51943;SDS011;37969;53.132;6.370;2023-02-04T05:43:58;61.67;;;7.00;;
51943;SDS011;37969;53.132;6.370;2023-02-04T05:46:24;61.92;;;7.55;;
51943;SDS011;37969;53.132;6.370;2023-02-04T05:48:50;51.72;;;6.63;;
51943;SDS011;37969;53.132;6.370;2023-02-04T05:51:16;64.97;;;9.57;;
51943;SDS011;37969;53.132;6.370;2023-02-04T05:53:42;59.13;;;8.60;;
51943;SDS011;37969;53.132;6.370;2023-02-04T05:56:09;66.97;;;8.20;;
51943;SDS011;37969;53.132;6.370;2023-02-04T05:58:35;64.53;;;7.38;;
51943;SDS011;37969;53.132;6.370;2023-02-04T06:01:01;67.95;;;8.57;;
51943;SDS011;37969;53.132;6.370;2023-02-04T06:03:28;56.33;;;7.55;;
51943;SDS011;37969;53.132;6.370;2023-02-04T06:05:54;67.28;;;9.00;;
51943;SDS011;37969;53.132;6.370;2023-02-04T06:08:21;79.07;;;8.68;;
51943;SDS011;37969;53.132;6.370;2023-02-04T06:10:47;56.22;;;6.80;;
51943;SDS011;37969;53.132;6.370;2023-02-04T06:13:13;69.40;;;7.63;;
51943;SDS011;37969;53.132;6.370;2023-02-04T06:15:39;66.07;;;7.40;;
51943;SDS011;37969;53.132;6.370;2023-02-04T06:18:05;61.97;;;7.63;;
51943;SDS011;37969;53.132;6.370;2023-02-04T06:20:32;71.57;;;7.75;;
51943;SDS011;37969;53.132;6.370;2023-02-04T06:22:58;68.70;;;7.38;;
51943;SDS011;37969;53.132;6.370;2023-02-04T06:25:24;61.17;;;8.07;;
51943;SDS011;37969;53.132;6.370;2023-02-04T06:27:50;73.53;;;8.13;;
51943;SDS011;37969;53.132;6.370;2023-02-04T06:30:17;65.18;;;8.13;;
51943;SDS011;37969;53.132;6.370;2023-02-04T06:32:43;55.88;;;7.07;;
51943;SDS011;37969;53.132;6.370;2023-02-04T06:35:10;60.72;;;8.07;;
51943;SDS011;37969;53.132;6.370;2023-02-04T06:37:37;67.40;;;8.38;;
51943;SDS011;37969;53.132;6.370;2023-02-04T06:40:03;52.53;;;7.85;;
51943;SDS011;37969;53.132;6.370;2023-02-04T06:42:30;59.55;;;7.22;;
51943;SDS011;37969;53.132;6.370;2023-02-04T06:44:56;54.58;;;7.13;;
51943;SDS011;37969;53.132;6.370;2023-02-04T06:47:22;48.03;;;6.70;;
51943;SDS011;37969;53.132;6.370;2023-02-04T06:49:48;47.58;;;5.38;;
51943;SDS011;37969;53.132;6.370;2023-02-04T06:52:14;42.50;;;5.65;;
51943;SDS011;37969;53.132;6.370;2023-02-04T06:54:41;41.67;;;6.03;;
51943;SDS011;37969;53.132;6.370;2023-02-04T06:57:07;37.58;;;5.65;;
51943;SDS011;37969;53.132;6.370;2023-02-04T06:59:35;32.80;;;5.57;;
51943;SDS011;37969;53.132;6.370;2023-02-04T07:02:01;40.72;;;4.28;;
51943;SDS011;37969;53.132;6.370;2023-02-04T07:04:28;29.10;;;4.70;;
51943;SDS011;37969;53.132;6.370;2023-02-04T07:06:54;35.42;;;5.38;;
51943;SDS011;37969;53.132;6.370;2023-02-04T07:09:21;33.78;;;4.65;;
51943;SDS011;37969;53.132;6.370;2023-02-04T07:11:47;35.38;;;4.57;;
51943;SDS011;37969;53.132;6.370;2023-02-04T07:14:13;37.25;;;4.55;;
51943;SDS011;37969;53.132;6.370;2023-02-04T07:16:39;32.72;;;4.60;;
51943;SDS011;37969;53.132;6.370;2023-02-04T07:19:06;33.22;;;4.53;;
51943;SDS011;37969;53.132;6.370;2023-02-04T07:21:32;23.52;;;3.55;;
51943;SDS011;37969;53.132;6.370;2023-02-04T07:23:58;37.58;;;4.93;;
51943;SDS011;37969;53.132;6.370;2023-02-04T07:26:25;37.20;;;4.82;;
51943;SDS011;37969;53.132;6.370;2023-02-04T07:28:51;39.67;;;4.38;;
51943;SDS011;37969;53.132;6.370;2023-02-04T07:31:17;33.35;;;4.70;;
51943;SDS011;37969;53.132;6.370;2023-02-04T07:33:43;25.90;;;3.53;;
51943;SDS011;37969;53.132;6.370;2023-02-04T07:36:09;24.35;;;3.30;;
51943;SDS011;37969;53.132;6.370;2023-02-04T07:38:36;32.00;;;4.90;;
51943;SDS011;37969;53.132;6.370;2023-02-04T07:41:02;37.10;;;4.55;;
51943;SDS011;37969;53.132;6.370;2023-02-04T07:43:28;29.25;;;5.20;;
51943;SDS011;37969;53.132;6.370;2023-02-04T07:45:54;35.08;;;4.72;;
51943;SDS011;37969;53.132;6.370;2023-02-04T07:48:20;29.45;;;3.88;;
51943;SDS011;37969;53.132;6.370;2023-02-04T07:50:46;33.22;;;4.22;;
51943;SDS011;37969;53.132;6.370;2023-02-04T07:53:13;34.05;;;4.65;;
51943;SDS011;37969;53.132;6.370;2023-02-04T07:55:39;31.80;;;4.22;;
51943;SDS011;37969;53.132;6.370;2023-02-04T07:58:05;32.00;;;4.40;;
51943;SDS011;37969;53.132;6.370;2023-02-04T08:00:31;29.70;;;4.43;;
51943;SDS011;37969;53.132;6.370;2023-02-04T08:02:57;26.77;;;4.13;;
51943;SDS011;37969;53.132;6.370;2023-02-04T08:05:23;31.65;;;4.13;;
51943;SDS011;37969;53.132;6.370;2023-02-04T08:07:50;36.20;;;4.68;;
51943;SDS011;37969;53.132;6.370;2023-02-04T08:10:16;32.50;;;4.50;;
51943;SDS011;37969;53.132;6.370;2023-02-04T08:12:42;26.85;;;4.20;;
51943;SDS011;37969;53.132;6.370;2023-02-04T08:15:08;32.25;;;5.13;;
51943;SDS011;37969;53.132;6.370;2023-02-04T08:17:34;28.10;;;3.97;;
51943;SDS011;37969;53.132;6.370;2023-02-04T08:20:01;26.30;;;4.15;;
51943;SDS011;37969;53.132;6.370;2023-02-04T08:22:27;26.15;;;3.78;;
51943;SDS011;37969;53.132;6.370;2023-02-04T08:24:53;25.55;;;4.15;;
51943;SDS011;37969;53.132;6.370;2023-02-04T08:27:19;22.38;;;3.65;;
51943;SDS011;37969;53.132;6.370;2023-02-04T08:29:46;26.27;;;3.42;;
51943;SDS011;37969;53.132;6.370;2023-02-04T08:32:13;26.20;;;4.07;;
51943;SDS011;37969;53.132;6.370;2023-02-04T08:34:39;29.80;;;4.55;;
51943;SDS011;37969;53.132;6.370;2023-02-04T08:37:05;22.25;;;3.72;;
51943;SDS011;37969;53.132;6.370;2023-02-04T08:39:31;29.75;;;3.90;;
51943;SDS011;37969;53.132;6.370;2023-02-04T08:41:58;23.27;;;3.95;;
51943;SDS011;37969;53.132;6.370;2023-02-04T08:44:24;24.27;;;3.53;;
51943;SDS011;37969;53.132;6.370;2023-02-04T08:46:50;24.83;;;3.63;;
51943;SDS011;37969;53.132;6.370;2023-02-04T08:49:16;20.10;;;3.00;;
51943;SDS011;37969;53.132;6.370;2023-02-04T08:51:42;23.13;;;3.92;;
51943;SDS011;37969;53.132;6.370;2023-02-04T08:54:08;29.13;;;3.97;;
51943;SDS011;37969;53.132;6.370;2023-02-04T08:56:35;18.42;;;2.97;;
51943;SDS011;37969;53.132;6.370;2023-02-04T08:59:01;18.35;;;3.35;;
51943;SDS011;37969;53.132;6.370;2023-02-04T09:01:27;21.70;;;3.45;;
51943;SDS011;37969;53.132;6.370;2023-02-04T09:03:53;22.10;;;3.03;;
51943;SDS011;37969;53.132;6.370;2023-02-04T09:06:19;23.90;;;3.22;;
51943;SDS011;37969;53.132;6.370;2023-02-04T09:08:46;28.77;;;3.47;;
51943;SDS011;37969;53.132;6.370;2023-02-04T09:11:12;17.15;;;2.50;;
51943;SDS011;37969;53.132;6.370;2023-02-04T09:13:39;22.15;;;2.88;;
51943;SDS011;37969;53.132;6.370;2023-02-04T09:16:05;28.20;;;3.33;;
51943;SDS011;37969;53.132;6.370;2023-02-04T09:18:31;15.00;;;2.50;;
51943;SDS011;37969;53.132;6.370;2023-02-04T09:20:58;21.95;;;3.35;;
51943;SDS011;37969;53.132;6.370;2023-02-04T09:23:25;17.88;;;3.03;;
51943;SDS011;37969;53.132;6.370;2023-02-04T09:25:51;20.50;;;2.60;;
51943;SDS011;37969;53.132;6.370;2023-02-04T09:28:17;17.95;;;3.47;;
51943;SDS011;37969;53.132;6.370;2023-02-04T09:30:44;26.83;;;3.05;;
51943;SDS011;37969;53.132;6.370;2023-02-04T09:33:11;20.45;;;3.25;;
51943;SDS011;37969;53.132;6.370;2023-02-04T09:35:37;16.70;;;3.28;;
51943;SDS011;37969;53.132;6.370;2023-02-04T09:38:04;22.88;;;3.05;;
51943;SDS011;37969;53.132;6.370;2023-02-04T09:40:31;18.25;;;2.85;;
51943;SDS011;37969;53.132;6.370;2023-02-04T09:42:59;22.17;;;3.28;;
51943;SDS011;37969;53.132;6.370;2023-02-04T09:45:26;21.75;;;3.42;;
51943;SDS011;37969;53.132;6.370;2023-02-04T09:47:53;19.63;;;3.35;;
51943;SDS011;37969;53.132;6.370;2023-02-04T09:50:20;16.38;;;3.08;;
51943;SDS011;37969;53.132;6.370;2023-02-04T09:52:48;17.42;;;3.10;;
51943;SDS011;37969;53.132;6.370;2023-02-04T09:55:16;27.17;;;3.72;;
51943;SDS011;37969;53.132;6.370;2023-02-04T09:57:42;18.45;;;3.00;;
51943;SDS011;37969;53.132;6.370;2023-02-04T10:00:15;27.38;;;3.85;;
51943;SDS011;37969;53.132;6.370;2023-02-04T10:02:41;20.40;;;3.42;;
51943;SDS011;37969;53.132;6.370;2023-02-04T10:05:09;12.57;;;3.10;;
51943;SDS011;37969;53.132;6.370;2023-02-04T10:07:38;14.93;;;3.25;;
51943;SDS011;37969;53.132;6.370;2023-02-04T10:10:04;17.35;;;3.42;;
51943;SDS011;37969;53.132;6.370;2023-02-04T10:12:31;20.55;;;3.55;;
51943;SDS011;37969;53.132;6.370;2023-02-04T10:14:57;22.10;;;3.40;;
51943;SDS011;37969;53.132;6.370;2023-02-04T10:17:24;22.95;;;2.88;;
51943;SDS011;37969;53.132;6.370;2023-02-04T10:19:50;24.23;;;4.55;;
51943;SDS011;37969;53.132;6.370;2023-02-04T10:22:18;18.58;;;3.13;;
51943;SDS011;37969;53.132;6.370;2023-02-04T10:24:45;20.92;;;3.47;;
51943;SDS011;37969;53.132;6.370;2023-02-04T10:27:11;21.05;;;2.97;;
51943;SDS011;37969;53.132;6.370;2023-02-04T10:29:40;17.00;;;2.63;;
51943;SDS011;37969;53.132;6.370;2023-02-04T10:32:23;17.98;;;3.00;;
51943;SDS011;37969;53.132;6.370;2023-02-04T10:34:55;25.60;;;3.42;;
51943;SDS011;37969;53.132;6.370;2023-02-04T10:37:22;11.20;;;3.22;;
51943;SDS011;37969;53.132;6.370;2023-02-04T10:39:48;18.27;;;2.83;;
51943;SDS011;37969;53.132;6.370;2023-02-04T10:42:19;25.63;;;4.20;;
51943;SDS011;37969;53.132;6.370;2023-02-04T10:44:46;17.20;;;3.05;;
51943;SDS011;37969;53.132;6.370;2023-02-04T10:47:15;16.02;;;3.10;;
51943;SDS011;37969;53.132;6.370;2023-02-04T10:49:56;10.97;;;2.83;;
51943;SDS011;37969;53.132;6.370;2023-02-04T10:52:25;13.55;;;3.17;;
51943;SDS011;37969;53.132;6.370;2023-02-04T10:54:55;17.85;;;3.03;;
51943;SDS011;37969;53.132;6.370;2023-02-04T10:57:23;14.02;;;3.47;;
51943;SDS011;37969;53.132;6.370;2023-02-04T10:59:50;15.30;;;3.65;;
51943;SDS011;37969;53.132;6.370;2023-02-04T11:02:25;13.10;;;2.25;;
51943;SDS011;37969;53.132;6.370;2023-02-04T11:04:55;12.32;;;2.45;;
51943;SDS011;37969;53.132;6.370;2023-02-04T11:07:21;15.07;;;2.60;;
51943;SDS011;37969;53.132;6.370;2023-02-04T11:09:47;12.93;;;2.60;;
51943;SDS011;37969;53.132;6.370;2023-02-04T11:12:19;20.33;;;2.80;;
51943;SDS011;37969;53.132;6.370;2023-02-04T11:14:54;13.20;;;2.70;;
51943;SDS011;37969;53.132;6.370;2023-02-04T11:17:21;13.23;;;2.55;;
51943;SDS011;37969;53.132;6.370;2023-02-04T11:19:54;14.07;;;3.47;;
51943;SDS011;37969;53.132;6.370;2023-02-04T11:22:23;16.85;;;3.10;;
51943;SDS011;37969;53.132;6.370;2023-02-04T11:24:50;17.70;;;2.85;;
51943;SDS011;37969;53.132;6.370;2023-02-04T11:27:21;18.60;;;3.28;;
51943;SDS011;37969;53.132;6.370;2023-02-04T11:29:47;20.80;;;3.20;;
51943;SDS011;37969;53.132;6.370;2023-02-04T11:32:28;13.60;;;2.40;;
51943;SDS011;37969;53.132;6.370;2023-02-04T11:35:04;20.95;;;3.13;;
51943;SDS011;37969;53.132;6.370;2023-02-04T11:39:58;22.95;;;2.92;;
51943;SDS011;37969;53.132;6.370;2023-02-04T11:42:37;10.07;;;2.40;;
51943;SDS011;37969;53.132;6.370;2023-02-04T11:45:11;14.93;;;2.92;;
51943;SDS011;37969;53.132;6.370;2023-02-04T11:47:38;12.80;;;2.17;;
51943;SDS011;37969;53.132;6.370;2023-02-04T11:50:15;15.98;;;2.60;;
51943;SDS011;37969;53.132;6.370;2023-02-04T11:52:42;12.88;;;2.17;;
51943;SDS011;37969;53.132;6.370;2023-02-04T11:55:09;15.65;;;2.67;;
51943;SDS011;37969;53.132;6.370;2023-02-04T11:57:37;14.18;;;3.15;;
51943;SDS011;37969;53.132;6.370;2023-02-04T12:00:04;12.83;;;2.93;;
51943;SDS011;37969;53.132;6.370;2023-02-04T12:02:40;18.58;;;3.20;;
51943;SDS011;37969;53.132;6.370;2023-02-04T12:05:08;13.18;;;2.17;;
51943;SDS011;37969;53.132;6.370;2023-02-04T12:07:35;18.42;;;2.78;;
51943;SDS011;37969;53.132;6.370;2023-02-04T12:10:12;12.32;;;2.30;;
51943;SDS011;37969;53.132;6.370;2023-02-04T12:12:42;17.02;;;2.47;;
51943;SDS011;37969;53.132;6.370;2023-02-04T12:15:13;8.80;;;2.05;;
51943;SDS011;37969;53.132;6.370;2023-02-04T12:17:42;16.23;;;3.03;;
51943;SDS011;37969;53.132;6.370;2023-02-04T12:20:10;11.57;;;2.42;;
51943;SDS011;37969;53.132;6.370;2023-02-04T12:22:36;14.63;;;2.72;;
51943;SDS011;37969;53.132;6.370;2023-02-04T12:25:02;11.25;;;2.45;;
51943;SDS011;37969;53.132;6.370;2023-02-04T12:27:28;10.43;;;2.47;;
51943;SDS011;37969;53.132;6.370;2023-02-04T12:29:55;12.55;;;2.60;;
51943;SDS011;37969;53.132;6.370;2023-02-04T12:32:21;12.25;;;2.72;;
51943;SDS011;37969;53.132;6.370;2023-02-04T12:34:47;12.32;;;2.30;;
51943;SDS011;37969;53.132;6.370;2023-02-04T12:37:13;13.93;;;2.20;;
51943;SDS011;37969;53.132;6.370;2023-02-04T12:39:39;11.80;;;2.70;;
51943;SDS011;37969;53.132;6.370;2023-02-04T12:42:05;15.93;;;2.30;;
51943;SDS011;37969;53.132;6.370;2023-02-04T12:44:32;12.65;;;2.30;;
51943;SDS011;37969;53.132;6.370;2023-02-04T12:46:59;11.40;;;2.28;;
51943;SDS011;37969;53.132;6.370;2023-02-04T12:49:25;14.43;;;2.00;;
51943;SDS011;37969;53.132;6.370;2023-02-04T12:51:52;8.77;;;2.55;;
51943;SDS011;37969;53.132;6.370;2023-02-04T12:54:22;8.68;;;2.33;;
51943;SDS011;37969;53.132;6.370;2023-02-04T12:56:48;12.20;;;2.30;;
51943;SDS011;37969;53.132;6.370;2023-02-04T12:59:17;12.27;;;2.42;;
51943;SDS011;37969;53.132;6.370;2023-02-04T13:01:44;14.60;;;2.28;;
51943;SDS011;37969;53.132;6.370;2023-02-04T13:04:10;11.48;;;2.63;;
51943;SDS011;37969;53.132;6.370;2023-02-04T13:06:36;19.60;;;3.13;;
51943;SDS011;37969;53.132;6.370;2023-02-04T13:09:02;11.35;;;1.92;;
51943;SDS011;37969;53.132;6.370;2023-02-04T13:11:29;12.05;;;2.85;;
51943;SDS011;37969;53.132;6.370;2023-02-04T13:13:55;7.75;;;2.40;;
51943;SDS011;37969;53.132;6.370;2023-02-04T13:16:21;15.30;;;2.50;;
51943;SDS011;37969;53.132;6.370;2023-02-04T13:18:49;13.90;;;2.80;;
51943;SDS011;37969;53.132;6.370;2023-02-04T13:21:15;11.40;;;2.55;;
51943;SDS011;37969;53.132;6.370;2023-02-04T13:23:41;14.30;;;2.65;;
51943;SDS011;37969;53.132;6.370;2023-02-04T13:26:07;14.95;;;2.42;;
51943;SDS011;37969;53.132;6.370;2023-02-04T13:28:34;6.85;;;2.05;;
51943;SDS011;37969;53.132;6.370;2023-02-04T13:31:01;8.23;;;2.10;;
51943;SDS011;37969;53.132;6.370;2023-02-04T13:33:27;10.60;;;2.17;;
51943;SDS011;37969;53.132;6.370;2023-02-04T13:35:53;12.02;;;3.20;;
51943;SDS011;37969;53.132;6.370;2023-02-04T13:38:19;12.40;;;2.28;;
51943;SDS011;37969;53.132;6.370;2023-02-04T13:40:45;8.07;;;1.85;;
51943;SDS011;37969;53.132;6.370;2023-02-04T13:43:11;9.20;;;1.90;;
51943;SDS011;37969;53.132;6.370;2023-02-04T13:45:38;8.88;;;1.92;;
51943;SDS011;37969;53.132;6.370;2023-02-04T13:48:05;10.88;;;2.22;;
51943;SDS011;37969;53.132;6.370;2023-02-04T13:50:31;13.52;;;2.10;;
51943;SDS011;37969;53.132;6.370;2023-02-04T13:52:57;9.30;;;1.98;;
51943;SDS011;37969;53.132;6.370;2023-02-04T13:55:23;11.75;;;2.20;;
51943;SDS011;37969;53.132;6.370;2023-02-04T13:57:49;10.65;;;2.10;;
51943;SDS011;37969;53.132;6.370;2023-02-04T14:00:15;9.02;;;1.80;;
51943;SDS011;37969;53.132;6.370;2023-02-04T14:02:42;12.07;;;1.92;;
51943;SDS011;37969;53.132;6.370;2023-02-04T14:05:08;15.68;;;2.00;;
51943;SDS011;37969;53.132;6.370;2023-02-04T14:07:34;10.40;;;2.25;;
51943;SDS011;37969;53.132;6.370;2023-02-04T14:10:01;7.20;;;2.00;;
51943;SDS011;37969;53.132;6.370;2023-02-04T14:12:27;9.93;;;2.38;;
51943;SDS011;37969;53.132;6.370;2023-02-04T14:14:53;11.13;;;2.08;;
51943;SDS011;37969;53.132;6.370;2023-02-04T14:17:19;9.32;;;2.00;;
51943;SDS011;37969;53.132;6.370;2023-02-04T14:19:45;8.15;;;2.30;;
51943;SDS011;37969;53.132;6.370;2023-02-04T14:22:11;7.82;;;2.65;;
51943;SDS011;37969;53.132;6.370;2023-02-04T14:24:38;8.85;;;1.58;;
51943;SDS011;37969;53.132;6.370;2023-02-04T14:27:06;7.50;;;2.08;;
51943;SDS011;37969;53.132;6.370;2023-02-04T14:29:33;11.60;;;2.40;;
51943;SDS011;37969;53.132;6.370;2023-02-04T14:31:59;7.72;;;1.92;;
51943;SDS011;37969;53.132;6.370;2023-02-04T14:34:25;9.07;;;1.45;;
51943;SDS011;37969;53.132;6.370;2023-02-04T14:36:52;11.48;;;2.00;;